East Candia, New Hampshire
Current Conditions -  °F | °C
As of 1:53 AM on Saturday 29 Nov 2014 (Local Time) from KMHT Reporting Station
Clear Clear  
Wind Chill: 20°   Ceiling: Unl
Heat Index: 20°   Visibility: 10mi
Dew Point: 11°   Wind: 0mph
Humidity: 68%   Direction: NA
Pressure: 30.21"   Gusts: NA
Location:  43.05°N, 71.25°W
Report Text: KMHT 290653Z 00000KT 10SM CLR M07/M12 A3021 RMK AO2 SLP250 T10671117
Loading
Personal Weather Stations






























Interactive Weather Map New forecast layout! Learn more

10-Day Weather Forecast

Advertisements
Track Severe Weather on mobile